Startpagina
METAR-TAF:

METAR-TAF

Vliegvelden :

Al-Bateen Airport

Abu Dhabi Bateen, Verenigde Arabische Emiraten

breedte: 24-26N, lengte: 054-28E, hoogte: 5 m

Actueel weer

Dit bericht is 58 minuten geleden gemaakt, om 19:00 UTC
Wind 13 kt uit het westnoordwesten
Temperatuur 20°C
Vochtigheid 60%
Druk 1014 hPa
Zicht 10 km of meer
geen wolken onder 1500 m en geen cumulonimbus

METAR: OMAD 191900Z 30013KT CAVOK 20/12 Q1014 NOSIG

Tijdstip: 23:58 (19:58 UTC)

Verwachting

Dit bericht is 2 uur en het 58 minuten geleden gemaakt, om 17:00 UTC
Verwachting geldig van 19 om 18 UTC tot 21 om 00 UTC
Wind 8 kt uit het westnoordwesten
Zicht: 8000 m
Kans 30% :
Tijdelijke
van 20 om 05 UTC tot 20 om 09 UTC
Wind 20 kt uit het noordwesten
Zicht: 4000 m
Stuifstof

TAF: OMAD 191700Z 1918/2100 29008KT 8000 NSC PROB30 TEMPO 2005/2009 31020KT 4000 BLDU

Waarnemingen en weersverwachtingen van meer dan 4000 vliegvelden (METAR en TAF).

De beschikbare stations zijn de gele en rode punten op de kaart.

Ga met uw muis naar het station om de naam te zien.

Klik dan om waarnemingen en weersverwachtingen te zien.

kaart wijzigen: klik op de groene knoppen met een zwart kruis om in te zoomen, op de groene knop met een streepje om uit te zoomen of op de groene pijlen voor aangrenzende kaarten.


METAR-TAF: